createdAt,value
2023-03-27T00:02:11.793Z,97511.25
2023-03-27T00:07:15.167Z,97514.16
2023-03-27T00:12:17.227Z,97516.59
2023-03-27T00:17:19.751Z,97516.03
2023-03-27T00:22:21.789Z,97516.06
2023-03-27T00:27:25.215Z,97517.09
2023-03-27T00:32:27.348Z,97516.28
2023-03-27T00:37:29.605Z,97520.56
2023-03-27T00:42:31.737Z,97531.06
2023-03-27T00:47:37.568Z,97539.81
2023-03-27T00:52:42.576Z,97545.09
2023-03-27T00:57:50.058Z,97551.75
2023-03-27T01:02:52.249Z,97544.06
2023-03-27T01:08:01.045Z,97549.56
2023-03-27T01:13:07.374Z,97549.53
2023-03-27T01:18:53.869Z,97549.56
2023-03-27T01:24:26.838Z,97550.97
2023-03-27T01:29:48.461Z,97550.59
2023-03-27T01:35:29.091Z,97548.34
2023-03-27T01:40:36.770Z,97544.91
2023-03-27T01:45:54.826Z,97541.66
2023-03-27T01:51:03.663Z,97548.13
2023-03-27T01:56:26.680Z,97535.97
2023-03-27T02:01:38.872Z,97539.03
2023-03-27T02:06:45.931Z,97539.81
2023-03-27T02:11:57.010Z,97544.31
2023-03-27T02:17:03.730Z,97547.94
2023-03-27T02:22:05.888Z,97555.03
2023-03-27T02:27:22.351Z,97552.00
2023-03-27T02:32:27.490Z,97552.59
2023-03-27T02:37:58.462Z,97551.19
2023-03-27T02:43:39.043Z,97567.81
2023-03-27T02:48:54.990Z,97562.94
2023-03-27T02:54:06.659Z,97545.91
2023-03-27T02:59:16.198Z,97549.56
2023-03-27T03:04:22.662Z,97552.59
2023-03-27T03:09:44.687Z,97557.06
2023-03-27T03:14:47.224Z,97563.13
2023-03-27T03:19:49.948Z,97584.63
2023-03-27T03:24:52.011Z,97582.97
2023-03-27T03:29:56.862Z,97581.09
2023-03-27T03:35:02.994Z,97568.28
2023-03-27T03:40:12.068Z,97584.47
2023-03-27T03:45:19.269Z,97585.63
2023-03-27T03:50:21.546Z,97582.56
2023-03-27T03:55:25.790Z,97587.81
2023-03-27T04:00:28.544Z,97583.97
2023-03-27T04:05:32.579Z,97589.84
2023-03-27T04:10:39.152Z,97603.63
2023-03-27T04:15:47.795Z,97599.34
2023-03-27T04:20:55.310Z,97600.94
2023-03-27T04:26:01.626Z,97598.13
2023-03-27T04:31:21.683Z,97589.03
2023-03-27T04:36:50.868Z,97590.44
2023-03-27T04:41:58.460Z,97586.00
2023-03-27T04:47:08.653Z,97582.41
2023-03-27T04:52:14.431Z,97583.84
2023-03-27T04:57:19.383Z,97589.91
2023-03-27T05:02:23.764Z,97584.22
2023-03-27T05:07:32.926Z,97579.94
2023-03-27T05:12:37.125Z,97583.56
2023-03-27T05:17:41.875Z,97581.47
2023-03-27T05:22:45.312Z,97594.47
2023-03-27T05:28:03.929Z,97598.38
2023-03-27T05:33:09.936Z,97592.28
2023-03-27T05:38:13.543Z,97605.91
2023-03-27T05:43:22.833Z,97600.66
2023-03-27T05:48:25.077Z,97613.44
2023-03-27T05:53:28.983Z,97615.22
2023-03-27T05:59:10.277Z,97610.09
2023-03-27T06:04:13.200Z,97604.66
2023-03-27T06:09:27.813Z,97615.59
2023-03-27T06:14:56.349Z,97615.38
2023-03-27T06:20:13.041Z,97619.00
2023-03-27T06:25:17.919Z,97618.56
2023-03-27T06:30:40.490Z,97617.09
2023-03-27T06:36:21.484Z,97627.19
2023-03-27T06:41:25.925Z,97609.69
2023-03-27T06:46:45.809Z,97633.88
2023-03-27T06:51:52.433Z,97643.84
2023-03-27T06:56:56.471Z,97637.38
2023-03-27T07:01:58.882Z,97640.00
2023-03-27T07:07:29.736Z,97643.66
2023-03-27T07:12:31.799Z,97625.53
2023-03-27T07:17:47.660Z,97635.81
2023-03-27T07:22:53.667Z,97638.88
2023-03-27T07:28:14.005Z,97638.81
2023-03-27T07:33:16.330Z,97626.84
2023-03-27T07:38:18.653Z,97634.19
2023-03-27T07:43:41.256Z,97628.69
2023-03-27T07:48:44.691Z,97629.22
2023-03-27T07:53:56.823Z,97635.19
2023-03-27T07:59:07.615Z,97635.03
2023-03-27T08:04:10.252Z,97627.09
2023-03-27T08:09:15.292Z,97637.22
2023-03-27T08:14:26.342Z,97631.84
2023-03-27T08:19:33.583Z,97640.72
2023-03-27T08:24:36.189Z,97641.00
2023-03-27T08:29:58.462Z,97631.53
2023-03-27T08:35:01.040Z,97643.88
2023-03-27T08:40:08.955Z,97645.19
2023-03-27T08:45:32.238Z,97646.84
2023-03-27T08:50:44.176Z,97645.97
2023-03-27T08:55:52.530Z,97633.59
2023-03-27T09:01:46.988Z,97639.00
2023-03-27T09:07:11.714Z,97641.06
2023-03-27T09:12:49.834Z,97637.88
2023-03-27T09:18:01.761Z,97640.91
2023-03-27T09:23:19.834Z,97632.00
2023-03-27T09:28:51.704Z,97646.91
2023-03-27T09:34:03.014Z,97649.34
2023-03-27T09:39:08.278Z,97653.19
2023-03-27T09:44:25.670Z,97663.28
2023-03-27T09:49:31.528Z,97679.81
2023-03-27T09:54:56.177Z,97690.50
2023-03-27T10:00:25.097Z,97680.84
2023-03-27T10:05:30.272Z,97681.06
2023-03-27T10:10:34.888Z,97682.88
2023-03-27T10:15:41.299Z,97682.06
2023-03-27T10:20:56.752Z,97683.16
2023-03-27T10:26:04.493Z,97689.59
2023-03-27T10:31:29.800Z,97687.88
2023-03-27T10:36:39.328Z,97684.09
2023-03-27T10:41:48.674Z,97692.44
2023-03-27T10:46:53.160Z,97679.19
2023-03-27T10:52:19.511Z,97697.19
2023-03-27T10:57:47.880Z,97700.13
2023-03-27T11:03:15.840Z,97681.34
2023-03-27T11:08:47.202Z,97699.50
2023-03-27T11:13:49.565Z,97705.50
2023-03-27T11:19:08.382Z,97684.59
2023-03-27T11:24:38.671Z,97694.50
2023-03-27T11:30:16.430Z,97699.59
2023-03-27T11:35:37.007Z,97685.56
2023-03-27T11:41:06.249Z,97705.94
2023-03-27T11:46:23.780Z,97706.31
2023-03-27T11:51:26.315Z,97710.06
2023-03-27T11:56:51.636Z,97728.34
2023-03-27T12:02:06.631Z,97724.88
2023-03-27T12:07:36.955Z,97727.78
2023-03-27T12:12:45.802Z,97737.13
2023-03-27T12:18:35.883Z,97747.19
2023-03-27T12:24:14.627Z,97754.03
2023-03-27T12:29:58.325Z,97749.66
2023-03-27T12:35:10.758Z,97767.78
2023-03-27T12:40:39.940Z,97772.47
2023-03-27T12:46:30.344Z,97772.00
2023-03-27T12:51:51.145Z,97773.88
2023-03-27T12:57:20.736Z,97782.69
2023-03-27T13:02:42.988Z,97786.41
2023-03-27T13:08:01.289Z,97788.53
2023-03-27T13:13:41.468Z,97803.28
2023-03-27T13:19:01.843Z,97812.16
2023-03-27T13:24:23.833Z,97809.28
2023-03-27T13:29:32.268Z,97788.56
2023-03-27T13:34:41.800Z,97808.53
2023-03-27T13:39:55.703Z,97816.06
2023-03-27T13:45:15.439Z,97809.94
2023-03-27T13:50:52.263Z,97818.75
2023-03-27T13:56:13.717Z,97824.50
2023-03-27T14:02:02.644Z,97830.63
2023-03-27T14:07:14.520Z,97833.81
2023-03-27T14:12:46.027Z,97842.00
2023-03-27T14:18:16.307Z,97842.63
2023-03-27T14:23:25.766Z,97853.00
2023-03-27T14:28:42.396Z,97837.19
2023-03-27T14:34:14.587Z,97857.41
2023-03-27T14:39:24.596Z,97869.97
2023-03-27T14:44:34.000Z,97871.72
2023-03-27T14:49:50.869Z,97881.22
2023-03-27T14:55:08.960Z,97880.91
2023-03-27T15:00:24.647Z,97884.97
2023-03-27T15:05:26.786Z,97897.91
2023-03-27T15:10:37.383Z,97908.13
2023-03-27T15:15:44.355Z,97919.13
2023-03-27T15:20:47.302Z,97918.13
2023-03-27T15:25:57.878Z,97929.56
2023-03-27T15:31:03.505Z,97929.03
2023-03-27T15:36:11.236Z,97943.72
2023-03-27T15:41:16.346Z,97944.38
2023-03-27T15:46:20.239Z,97958.09
2023-03-27T15:51:22.264Z,97958.13
2023-03-27T15:56:34.175Z,97972.44
2023-03-27T16:01:52.891Z,97976.84
2023-03-27T16:07:11.036Z,97993.34
2023-03-27T16:12:16.336Z,98008.06
2023-03-27T16:17:38.334Z,98018.41
2023-03-27T16:22:40.626Z,98018.50
2023-03-27T16:27:46.048Z,98023.19
2023-03-27T16:32:48.183Z,98023.94
2023-03-27T16:37:50.409Z,98038.38
2023-03-27T16:42:52.409Z,98049.16
2023-03-27T16:47:54.776Z,98050.13
2023-03-27T16:52:57.932Z,98056.72
2023-03-27T16:58:00.055Z,98057.31
2023-03-27T17:03:02.302Z,98069.72
2023-03-27T17:08:06.726Z,98074.22
2023-03-27T17:13:09.603Z,98086.81
2023-03-27T17:18:11.677Z,98087.19
2023-03-27T17:23:13.874Z,98097.16
2023-03-27T17:28:16.261Z,98104.53
2023-03-27T17:33:18.350Z,98093.94
2023-03-27T17:38:22.672Z,98094.34
2023-03-27T17:43:24.859Z,98098.38
2023-03-27T17:48:27.026Z,98089.03
2023-03-27T17:53:29.540Z,98109.59
2023-03-27T17:58:34.172Z,98113.06
2023-03-27T18:03:36.949Z,98124.66
2023-03-27T18:08:39.421Z,98127.31
2023-03-27T18:13:42.051Z,98130.94
2023-03-27T18:18:44.175Z,98128.31
2023-03-27T18:23:46.940Z,98144.75
2023-03-27T18:28:49.182Z,98158.38
2023-03-27T18:33:52.643Z,98164.72
2023-03-27T18:38:56.557Z,98168.56
2023-03-27T18:43:58.804Z,98176.09
2023-03-27T18:49:10.212Z,98179.94
2023-03-27T18:54:16.291Z,98178.75
2023-03-27T18:59:19.494Z,98187.47
2023-03-27T19:04:21.740Z,98191.34
2023-03-27T19:09:31.214Z,98186.38
2023-03-27T19:14:42.788Z,98205.13
2023-03-27T19:20:10.120Z,98221.03
2023-03-27T19:25:25.897Z,98226.50
2023-03-27T19:30:28.802Z,98238.28
2023-03-27T19:35:31.209Z,98240.09
2023-03-27T19:40:33.356Z,98253.28
2023-03-27T19:45:35.441Z,98256.34
2023-03-27T19:50:37.446Z,98270.97
2023-03-27T19:55:49.415Z,98278.66
2023-03-27T20:00:53.784Z,98293.53
2023-03-27T20:06:06.304Z,98299.22
2023-03-27T20:11:09.337Z,98305.28
2023-03-27T20:16:14.944Z,98298.91
2023-03-27T20:21:25.726Z,98307.03
2023-03-27T20:26:29.731Z,98311.00
2023-03-27T20:31:40.908Z,98314.66
2023-03-27T20:36:43.418Z,98317.31
2023-03-27T20:42:04.992Z,98322.59
2023-03-27T20:47:15.008Z,98322.16
2023-03-27T20:52:22.887Z,98324.97
2023-03-27T20:57:25.162Z,98327.06
2023-03-27T21:02:27.385Z,98329.69
2023-03-27T21:07:34.235Z,98319.69
2023-03-27T21:12:36.966Z,98323.16
2023-03-27T21:17:41.492Z,98325.97
2023-03-27T21:22:43.842Z,98325.97
2023-03-27T21:27:45.882Z,98331.94
2023-03-27T21:32:49.200Z,98323.66
2023-03-27T21:37:51.416Z,98327.59
2023-03-27T21:42:53.652Z,98323.97
2023-03-27T21:47:55.809Z,98317.16
2023-03-27T21:52:57.868Z,98323.34
2023-03-27T21:58:00.110Z,98319.63
2023-03-27T22:03:02.975Z,98331.56
2023-03-27T22:08:05.699Z,98342.16
2023-03-27T22:13:07.823Z,98348.97
2023-03-27T22:18:10.037Z,98362.91
2023-03-27T22:23:12.360Z,98366.59
2023-03-27T22:28:14.434Z,98396.91
2023-03-27T22:33:16.589Z,98397.00
2023-03-27T22:38:18.789Z,98406.44
2023-03-27T22:43:22.779Z,98414.38
2023-03-27T22:48:25.430Z,98420.22
2023-03-27T22:53:27.764Z,98421.06
2023-03-27T22:58:31.008Z,98416.34
2023-03-27T23:03:33.551Z,98440.53
2023-03-27T23:08:35.855Z,98439.44
2023-03-27T23:13:37.913Z,98441.91
2023-03-27T23:18:40.368Z,98458.53
2023-03-27T23:23:42.534Z,98449.84
2023-03-27T23:28:45.326Z,98454.66
2023-03-27T23:33:49.329Z,98455.19
2023-03-27T23:38:52.684Z,98456.03
2023-03-27T23:43:54.751Z,98465.13
2023-03-27T23:48:57.401Z,98466.78
2023-03-27T23:53:59.428Z,98474.75
2023-03-27T23:59:01.671Z,98479.03
